createdAt,value
2019-03-24T00:00:16.674Z,6.80
2019-03-24T00:03:04.657Z,6.80
2019-03-24T00:05:52.589Z,6.80
2019-03-24T00:08:22.173Z,6.80
2019-03-24T00:10:50.750Z,6.80
2019-03-24T00:13:38.692Z,6.80
2019-03-24T00:16:26.604Z,6.80
2019-03-24T00:19:14.531Z,6.70
2019-03-24T00:22:02.427Z,6.70
2019-03-24T00:24:50.362Z,6.70
2019-03-24T00:27:38.299Z,6.70
2019-03-24T00:30:26.203Z,6.70
2019-03-24T00:33:14.132Z,6.70
2019-03-24T00:36:02.033Z,6.70
2019-03-24T00:38:49.961Z,6.70
2019-03-24T00:41:31.065Z,6.70
2019-03-24T00:44:12.198Z,6.70
2019-03-24T00:46:53.446Z,6.70
2019-03-24T00:49:35.489Z,6.70
2019-03-24T00:52:16.119Z,6.70
2019-03-24T00:54:57.093Z,6.70
2019-03-24T00:57:37.840Z,6.70
2019-03-24T01:00:18.525Z,6.70
2019-03-24T01:02:59.325Z,6.70
2019-03-24T01:05:40.349Z,6.70
2019-03-24T01:08:20.934Z,6.70
2019-03-24T01:11:01.901Z,6.70
2019-03-24T01:13:42.708Z,6.70
2019-03-24T01:16:23.672Z,6.70
2019-03-24T01:19:04.720Z,6.60
2019-03-24T01:21:45.402Z,6.60
2019-03-24T01:24:26.661Z,6.60
2019-03-24T01:27:07.098Z,6.70
2019-03-24T01:29:47.904Z,6.60
2019-03-24T01:32:29.027Z,6.60
2019-03-24T01:35:09.419Z,6.50
2019-03-24T01:37:50.105Z,6.50
2019-03-24T01:40:30.452Z,6.50
2019-03-24T01:43:11.746Z,6.50
2019-03-24T01:45:40.305Z,6.50
2019-03-24T01:48:08.898Z,6.50
2019-03-24T01:50:37.500Z,6.50
2019-03-24T01:53:06.157Z,6.50
2019-03-24T01:55:34.767Z,6.60
2019-03-24T01:58:03.312Z,6.60
2019-03-24T02:00:51.314Z,6.60
2019-03-24T02:03:39.218Z,6.60
2019-03-24T02:06:27.171Z,6.60
2019-03-24T02:09:15.064Z,6.60
2019-03-24T02:12:02.989Z,6.60
2019-03-24T02:14:50.905Z,6.50
2019-03-24T02:17:39.037Z,6.50
2019-03-24T02:20:26.928Z,6.50
2019-03-24T02:23:14.874Z,6.50
2019-03-24T02:26:02.782Z,6.50
2019-03-24T02:28:50.726Z,6.50
2019-03-24T02:31:38.662Z,6.40
2019-03-24T02:34:26.619Z,6.40
2019-03-24T02:37:14.496Z,6.30
2019-03-24T02:40:02.446Z,6.40
2019-03-24T02:42:50.348Z,6.40
2019-03-24T02:45:38.274Z,6.40
2019-03-24T02:48:26.202Z,6.40
2019-03-24T02:51:06.986Z,6.40
2019-03-24T02:53:47.442Z,6.40
2019-03-24T02:56:28.040Z,6.40
2019-03-24T02:59:08.768Z,6.40
2019-03-24T03:01:50.129Z,6.40
2019-03-24T03:07:13.085Z,6.40
2019-03-24T03:09:41.647Z,6.40
2019-03-24T03:12:10.209Z,6.40
2019-03-24T03:14:58.137Z,6.40
2019-03-24T03:17:46.070Z,6.40
2019-03-24T03:20:34.001Z,6.40
2019-03-24T03:23:21.910Z,6.30
2019-03-24T03:26:09.817Z,6.30
2019-03-24T03:28:38.415Z,6.20
2019-03-24T03:31:26.320Z,6.30
2019-03-24T03:34:14.253Z,6.30
2019-03-24T03:37:02.231Z,6.30
2019-03-24T03:39:50.173Z,6.30
2019-03-24T03:42:58.952Z,6.30
2019-03-24T03:45:46.981Z,6.30
2019-03-24T03:48:34.918Z,6.30
2019-03-24T03:51:15.611Z,6.30
2019-03-24T03:53:59.119Z,6.30
2019-03-24T03:56:38.723Z,6.20
2019-03-24T03:59:19.922Z,6.20
2019-03-24T04:02:00.536Z,6.20
2019-03-24T04:04:41.901Z,6.30
2019-03-24T04:07:22.522Z,6.30
2019-03-24T04:10:03.232Z,6.30
2019-03-24T04:12:43.967Z,6.30
2019-03-24T04:15:24.434Z,6.20
2019-03-24T04:18:05.279Z,6.20
2019-03-24T04:20:46.070Z,6.30
2019-03-24T04:23:14.652Z,6.30
2019-03-24T04:25:43.248Z,6.20
2019-03-24T04:28:11.802Z,6.20
2019-03-24T04:30:59.747Z,6.20
2019-03-24T04:33:47.673Z,6.20
2019-03-24T04:36:35.615Z,6.20
2019-03-24T04:39:23.521Z,6.20
2019-03-24T04:42:11.474Z,6.30
2019-03-24T04:44:59.373Z,6.30
2019-03-24T04:47:47.310Z,6.20
2019-03-24T04:50:35.213Z,6.20
2019-03-24T04:53:15.941Z,6.20
2019-03-24T04:55:56.542Z,6.20
2019-03-24T04:58:37.382Z,6.20
2019-03-24T05:01:18.501Z,6.20
2019-03-24T05:03:59.665Z,6.20
2019-03-24T05:06:41.021Z,6.20
2019-03-24T05:09:21.859Z,6.10
2019-03-24T05:12:02.450Z,6.10
2019-03-24T05:14:31.132Z,6.10
2019-03-24T05:17:26.676Z,6.10
2019-03-24T05:20:08.622Z,6.10
2019-03-24T05:22:56.552Z,6.10
2019-03-24T05:25:44.452Z,6.10
2019-03-24T05:28:32.385Z,6.10
2019-03-24T05:31:20.355Z,6.10
2019-03-24T05:34:08.277Z,6.10
2019-03-24T05:36:56.197Z,6.20
2019-03-24T05:39:44.118Z,6.20
2019-03-24T05:42:32.044Z,6.20
2019-03-24T05:45:19.981Z,6.20
2019-03-24T05:48:07.910Z,6.20
2019-03-24T05:50:55.811Z,6.20
2019-03-24T05:53:37.220Z,6.20
2019-03-24T05:56:17.957Z,6.20
2019-03-24T05:58:46.544Z,6.20
2019-03-24T06:01:15.101Z,6.20
2019-03-24T06:03:43.688Z,6.20
2019-03-24T06:06:12.252Z,6.20
2019-03-24T06:09:00.306Z,6.30
2019-03-24T06:11:48.209Z,6.30
2019-03-24T06:14:36.278Z,6.40
2019-03-24T06:20:31.081Z,6.50
2019-03-24T06:23:18.982Z,6.50
2019-03-24T06:26:06.925Z,6.60
2019-03-24T06:28:35.490Z,6.60
2019-03-24T06:31:23.551Z,6.70
2019-03-24T06:34:23.663Z,6.80
2019-03-24T06:37:01.558Z,6.90
2019-03-24T06:39:49.455Z,6.90
2019-03-24T06:42:18.050Z,7.00
2019-03-24T06:44:58.823Z,7.00
2019-03-24T06:47:39.553Z,7.10
2019-03-24T06:50:19.949Z,7.10
2019-03-24T06:53:00.875Z,7.20
2019-03-24T06:55:41.849Z,7.20
2019-03-24T06:58:22.669Z,7.20
2019-03-24T07:01:03.530Z,7.30
2019-03-24T07:03:43.980Z,7.40
2019-03-24T07:06:25.229Z,7.40
2019-03-24T07:09:05.793Z,7.30
2019-03-24T07:11:47.057Z,7.30
2019-03-24T07:14:27.691Z,7.30
2019-03-24T07:17:08.246Z,7.30
2019-03-24T07:19:49.404Z,7.20
2019-03-24T07:22:30.349Z,7.30
2019-03-24T07:25:11.155Z,7.30
2019-03-24T07:27:52.461Z,7.20
2019-03-24T07:30:33.382Z,7.10
2019-03-24T07:33:14.454Z,7.10
2019-03-24T07:35:54.897Z,7.10
2019-03-24T07:38:35.541Z,7.30
2019-03-24T07:41:15.938Z,7.40
2019-03-24T07:43:57.109Z,7.50
2019-03-24T07:46:37.922Z,7.60
2019-03-24T07:49:18.823Z,7.80
2019-03-24T07:52:00.038Z,7.90
2019-03-24T07:54:41.017Z,7.90
2019-03-24T07:57:21.887Z,7.80
2019-03-24T08:00:02.627Z,7.80
2019-03-24T08:02:31.279Z,7.80
2019-03-24T08:04:59.867Z,7.80
2019-03-24T08:07:47.769Z,7.70
2019-03-24T08:10:35.812Z,7.60
2019-03-24T08:13:24.021Z,7.50
2019-03-24T08:16:11.957Z,7.60
2019-03-24T08:18:59.857Z,7.60
2019-03-24T08:21:47.795Z,7.70
2019-03-24T08:24:35.697Z,7.80
2019-03-24T08:30:37.698Z,8.20
2019-03-24T08:33:25.626Z,8.20
2019-03-24T08:36:15.591Z,8.20
2019-03-24T08:41:58.242Z,8.30
2019-03-24T08:44:46.224Z,8.20
2019-03-24T08:47:34.179Z,8.20
2019-03-24T08:50:22.098Z,8.30
2019-03-24T08:53:10.013Z,8.50
2019-03-24T08:58:33.797Z,8.40
2019-03-24T09:01:15.035Z,8.70
2019-03-24T09:03:55.948Z,8.40
2019-03-24T09:06:36.461Z,8.20
2019-03-24T09:09:06.597Z,8.20
2019-03-24T09:11:35.449Z,8.30
2019-03-24T09:14:04.027Z,8.30
2019-03-24T09:16:51.966Z,8.40
2019-03-24T09:19:52.774Z,8.50
2019-03-24T09:25:37.392Z,8.30
2019-03-24T09:31:22.004Z,7.90
2019-03-24T09:34:09.905Z,7.90
2019-03-24T09:36:58.466Z,7.90
2019-03-24T09:39:46.625Z,8.00
2019-03-24T09:42:34.550Z,7.90
2019-03-24T09:45:22.605Z,8.00
2019-03-24T09:48:10.512Z,8.20
2019-03-24T09:54:13.848Z,8.30
2019-03-24T09:56:54.201Z,8.20
2019-03-24T09:59:34.791Z,8.10
2019-03-24T10:02:15.145Z,8.20
2019-03-24T10:04:56.541Z,8.30
2019-03-24T10:07:37.717Z,8.20
2019-03-24T10:10:18.782Z,8.80
2019-03-24T10:12:59.679Z,9.00
2019-03-24T10:15:40.176Z,9.10
2019-03-24T10:18:20.862Z,8.80
2019-03-24T10:21:01.873Z,8.60
2019-03-24T10:23:42.881Z,8.50
2019-03-24T10:26:23.750Z,8.80
2019-03-24T10:28:52.317Z,8.80
2019-03-24T10:31:20.913Z,8.70
2019-03-24T10:33:49.481Z,8.70
2019-03-24T10:36:18.088Z,8.70
2019-03-24T10:38:46.655Z,8.90
2019-03-24T10:41:15.303Z,9.20
2019-03-24T10:44:03.274Z,9.60
2019-03-24T10:46:51.173Z,9.80
2019-03-24T10:49:39.140Z,9.50
2019-03-24T10:52:27.033Z,9.40
2019-03-24T10:55:08.259Z,9.40
2019-03-24T10:57:49.436Z,9.70
2019-03-24T11:00:30.090Z,9.70
2019-03-24T11:02:58.695Z,9.70
2019-03-24T11:05:46.629Z,9.80
2019-03-24T11:08:34.549Z,9.90
2019-03-24T11:11:22.488Z,9.80
2019-03-24T11:14:10.395Z,9.90
2019-03-24T11:16:58.335Z,10.20
2019-03-24T11:19:46.274Z,10.30
2019-03-24T11:22:34.226Z,10.40
2019-03-24T11:25:22.148Z,10.70
2019-03-24T11:28:10.193Z,10.60
2019-03-24T11:30:58.147Z,10.40
2019-03-24T11:33:46.048Z,10.60
2019-03-24T11:36:34.018Z,10.90
2019-03-24T11:39:21.925Z,11.10
2019-03-24T11:42:09.940Z,11.10
2019-03-24T11:48:16.716Z,11.30
2019-03-24T11:50:54.621Z,11.30
2019-03-24T11:53:42.500Z,11.30
2019-03-24T11:56:23.676Z,11.40
2019-03-24T11:59:04.781Z,11.60
2019-03-24T12:01:46.185Z,11.80
2019-03-24T12:04:27.429Z,11.80
2019-03-24T12:07:07.837Z,11.90
2019-03-24T12:09:48.617Z,11.80
2019-03-24T12:12:29.394Z,11.70
2019-03-24T12:15:10.457Z,11.70
2019-03-24T12:17:51.383Z,11.40
2019-03-24T12:20:32.130Z,11.20
2019-03-24T12:23:13.249Z,11.20
2019-03-24T12:25:54.097Z,10.90
2019-03-24T12:28:34.968Z,10.90
2019-03-24T12:31:15.493Z,11.20
2019-03-24T12:33:56.038Z,11.30
2019-03-24T12:36:36.970Z,11.30
2019-03-24T12:39:18.270Z,11.20
2019-03-24T12:41:59.196Z,11.10
2019-03-24T12:44:40.116Z,11.20
2019-03-24T12:47:21.358Z,11.50
2019-03-24T12:50:09.033Z,11.70
2019-03-24T12:52:45.153Z,11.80
2019-03-24T12:55:25.814Z,11.60
2019-03-24T12:58:06.961Z,11.30
2019-03-24T13:00:47.974Z,11.10
2019-03-24T13:03:28.389Z,11.00
2019-03-24T13:06:08.878Z,10.90
2019-03-24T13:08:49.290Z,11.00
2019-03-24T13:11:17.853Z,11.00
2019-03-24T13:14:05.804Z,11.20
2019-03-24T13:16:53.751Z,11.10
2019-03-24T13:19:41.649Z,11.30
2019-03-24T13:22:29.593Z,11.80
2019-03-24T13:25:17.534Z,12.00
2019-03-24T13:28:05.433Z,12.20
2019-03-24T13:30:53.395Z,12.30
2019-03-24T13:33:41.301Z,12.50
2019-03-24T13:36:29.257Z,12.50
2019-03-24T13:39:17.160Z,12.50
2019-03-24T13:42:05.605Z,12.50
2019-03-24T13:44:53.515Z,12.60
2019-03-24T13:47:41.457Z,12.30
2019-03-24T13:50:31.723Z,12.30
2019-03-24T13:53:19.029Z,12.40
2019-03-24T13:55:59.489Z,12.40
2019-03-24T13:58:40.513Z,12.40
2019-03-24T14:01:21.589Z,12.30
2019-03-24T14:03:50.195Z,12.10
2019-03-24T14:06:18.779Z,12.20
2019-03-24T14:08:47.393Z,12.30
2019-03-24T14:11:16.611Z,12.00
2019-03-24T14:14:04.678Z,12.00
2019-03-24T14:16:52.620Z,12.00
2019-03-24T14:19:54.787Z,12.00
2019-03-24T14:22:30.121Z,11.90
2019-03-24T14:25:18.083Z,11.90
2019-03-24T14:28:06.019Z,12.00
2019-03-24T14:30:53.962Z,12.00
2019-03-24T14:33:41.873Z,11.90
2019-03-24T14:36:29.808Z,11.80
2019-03-24T14:39:17.720Z,11.70
2019-03-24T14:42:06.306Z,11.70
2019-03-24T14:44:54.216Z,11.60
2019-03-24T14:47:42.170Z,11.70
2019-03-24T14:50:30.110Z,11.70
2019-03-24T14:53:18.023Z,11.60
2019-03-24T14:56:06.025Z,11.60
2019-03-24T14:58:46.754Z,11.50
2019-03-24T15:01:27.485Z,11.60
2019-03-24T15:04:07.952Z,11.60
2019-03-24T15:06:48.727Z,11.50
2019-03-24T15:09:29.629Z,11.50
2019-03-24T15:12:10.305Z,11.50
2019-03-24T15:14:51.205Z,11.50
2019-03-24T15:17:31.941Z,11.30
2019-03-24T15:20:12.561Z,11.30
2019-03-24T15:22:53.733Z,11.40
2019-03-24T15:25:34.430Z,11.20
2019-03-24T15:28:14.938Z,11.10
2019-03-24T15:30:56.064Z,11.10
2019-03-24T15:33:36.904Z,11.10
2019-03-24T15:36:17.804Z,11.20
2019-03-24T15:38:58.710Z,11.10
2019-03-24T15:41:39.642Z,11.10
2019-03-24T15:44:20.065Z,11.20
2019-03-24T15:47:01.325Z,11.10
2019-03-24T15:49:42.121Z,11.10
2019-03-24T15:52:23.320Z,11.10
2019-03-24T15:55:03.811Z,11.10
2019-03-24T15:57:44.374Z,11.00
2019-03-24T16:00:25.615Z,10.90
2019-03-24T16:03:06.385Z,10.80
2019-03-24T16:05:47.816Z,10.70
2019-03-24T16:08:28.607Z,10.60
2019-03-24T16:11:09.777Z,10.50
2019-03-24T16:13:50.833Z,10.40
2019-03-24T16:16:30.145Z,10.30
2019-03-24T16:19:18.052Z,10.30
2019-03-24T16:22:05.995Z,10.10
2019-03-24T16:24:53.898Z,10.00
2019-03-24T16:27:41.833Z,9.90
2019-03-24T16:30:29.773Z,9.80
2019-03-24T16:33:17.731Z,9.80
2019-03-24T16:36:05.662Z,9.70
2019-03-24T16:39:03.158Z,9.80
2019-03-24T16:41:43.145Z,9.80
2019-03-24T16:44:31.097Z,9.80
2019-03-24T16:47:19.037Z,9.80
2019-03-24T16:50:07.021Z,9.80
2019-03-24T16:52:55.020Z,9.80
2019-03-24T16:55:43.127Z,9.70
2019-03-24T16:58:24.417Z,9.70
2019-03-24T17:01:12.299Z,9.60
2019-03-24T17:07:07.093Z,9.40
2019-03-24T17:09:55.028Z,9.30
2019-03-24T17:12:23.593Z,9.30
2019-03-24T17:15:11.696Z,9.20
2019-03-24T17:17:59.610Z,9.10
2019-03-24T17:20:47.575Z,8.70
2019-03-24T17:23:35.458Z,9.00
2019-03-24T17:26:23.400Z,8.60
2019-03-24T17:29:11.371Z,8.90
2019-03-24T17:31:59.316Z,8.90
2019-03-24T17:34:47.525Z,8.80
2019-03-24T17:37:36.928Z,8.80
2019-03-24T17:40:24.904Z,8.70
2019-03-24T17:43:13.150Z,8.60
2019-03-24T17:46:01.053Z,8.60
2019-03-24T17:48:49.113Z,8.50
2019-03-24T17:51:37.045Z,8.60
2019-03-24T17:54:24.982Z,8.70
2019-03-24T17:57:12.913Z,8.80
2019-03-24T17:59:54.333Z,8.80
2019-03-24T18:02:35.033Z,8.90
2019-03-24T18:05:16.105Z,8.90
2019-03-24T18:07:56.917Z,8.90
2019-03-24T18:10:25.485Z,8.90
2019-03-24T18:12:54.078Z,8.70
2019-03-24T18:15:22.736Z,8.70
2019-03-24T18:17:51.481Z,8.40
2019-03-24T18:20:28.790Z,8.20
2019-03-24T18:22:57.525Z,8.10
2019-03-24T18:25:26.209Z,7.90
2019-03-24T18:27:54.805Z,7.90
2019-03-24T18:30:42.712Z,7.80
2019-03-24T18:33:30.640Z,7.70
2019-03-24T18:36:18.541Z,7.60
2019-03-24T18:39:07.250Z,7.60
2019-03-24T18:41:55.161Z,7.50
2019-03-24T18:44:43.094Z,7.50
2019-03-24T18:47:30.996Z,7.50
2019-03-24T18:50:19.001Z,7.40
2019-03-24T18:53:06.909Z,7.40
2019-03-24T18:55:54.850Z,7.30
2019-03-24T18:58:42.753Z,7.20
2019-03-24T19:01:30.813Z,7.20
2019-03-24T19:04:18.729Z,7.10
2019-03-24T19:07:06.669Z,7.10
2019-03-24T19:09:54.565Z,7.00
2019-03-24T19:15:37.468Z,7.00
2019-03-24T19:18:26.213Z,7.00
2019-03-24T19:21:14.159Z,7.10
2019-03-24T19:27:08.978Z,7.00
2019-03-24T19:29:37.550Z,7.10
2019-03-24T19:32:25.592Z,7.10
2019-03-24T19:41:40.425Z,7.10
2019-03-24T19:44:09.032Z,7.10
2019-03-24T19:46:37.626Z,7.10
2019-03-24T19:49:08.434Z,7.10
2019-03-24T19:51:36.593Z,7.00
2019-03-24T19:54:05.332Z,7.00
2019-03-24T19:56:33.993Z,7.10
2019-03-24T19:59:02.585Z,7.10
2019-03-24T20:01:31.317Z,7.10
2019-03-24T20:04:00.034Z,7.00
2019-03-24T20:06:28.594Z,6.90
2019-03-24T20:09:30.535Z,6.90
2019-03-24T20:12:06.100Z,6.80
2019-03-24T20:14:54.041Z,6.80
2019-03-24T20:17:42.454Z,6.80
2019-03-24T20:20:30.390Z,6.70
2019-03-24T20:23:30.184Z,6.70
2019-03-24T20:26:07.992Z,6.60
2019-03-24T20:28:55.927Z,6.50
2019-03-24T20:31:43.885Z,6.40
2019-03-24T20:43:59.141Z,6.20
2019-03-24T20:49:41.293Z,6.10
2019-03-24T20:55:38.040Z,6.00
2019-03-24T20:58:33.432Z,5.90
2019-03-24T21:04:16.865Z,5.90
2019-03-24T21:06:45.448Z,5.90
2019-03-24T21:09:14.040Z,5.80
2019-03-24T21:12:01.946Z,5.80
2019-03-24T21:14:49.888Z,5.80
2019-03-24T21:17:37.914Z,5.80
2019-03-24T21:20:25.844Z,5.70
2019-03-24T21:23:13.750Z,5.70
2019-03-24T21:26:01.677Z,5.70
2019-03-24T21:28:49.610Z,5.70
2019-03-24T21:31:37.508Z,5.70
2019-03-24T21:34:25.447Z,5.80
2019-03-24T21:37:13.409Z,5.80
2019-03-24T21:40:01.312Z,5.90
2019-03-24T21:42:49.212Z,5.90
2019-03-24T21:45:37.161Z,6.00
2019-03-24T21:48:25.092Z,6.00
2019-03-24T21:51:13.016Z,6.00
2019-03-24T21:54:00.918Z,6.00
2019-03-24T21:56:48.861Z,6.00
2019-03-24T21:59:36.756Z,6.00
2019-03-24T22:02:17.347Z,6.00
2019-03-24T22:04:57.981Z,6.00
2019-03-24T22:07:38.613Z,5.90
2019-03-24T22:10:19.565Z,5.90
2019-03-24T22:13:00.462Z,5.80
2019-03-24T22:15:41.525Z,5.80
2019-03-24T22:18:22.420Z,5.70
2019-03-24T22:21:03.648Z,5.60
2019-03-24T22:23:52.194Z,5.60
2019-03-24T22:26:27.772Z,5.50
2019-03-24T22:29:09.150Z,5.40
2019-03-24T22:31:49.789Z,5.30
2019-03-24T22:34:30.419Z,5.30
2019-03-24T22:37:15.994Z,5.20
2019-03-24T22:39:54.014Z,5.20
2019-03-24T22:42:34.557Z,5.10
2019-03-24T22:45:14.979Z,5.10
2019-03-24T22:47:55.968Z,5.00
2019-03-24T22:50:36.725Z,5.00
2019-03-24T22:53:05.352Z,4.90
2019-03-24T22:55:33.944Z,4.90
2019-03-24T22:58:02.507Z,4.90
2019-03-24T23:00:33.049Z,4.90
2019-03-24T23:03:01.626Z,4.90
2019-03-24T23:05:49.624Z,4.90
2019-03-24T23:14:38.072Z,4.80
2019-03-24T23:17:26.021Z,4.70
2019-03-24T23:20:13.976Z,4.70
2019-03-24T23:23:01.907Z,4.70
2019-03-24T23:25:49.813Z,4.70
2019-03-24T23:28:37.733Z,4.70
2019-03-24T23:31:25.672Z,4.70
2019-03-24T23:34:13.572Z,4.80
2019-03-24T23:37:01.499Z,4.80
2019-03-24T23:39:49.461Z,4.90
2019-03-24T23:42:37.356Z,4.90
2019-03-24T23:48:18.559Z,4.90
2019-03-24T23:53:59.838Z,4.90
2019-03-24T23:56:47.770Z,4.90
2019-03-24T23:59:35.701Z,5.00
